createdAt,value
2023-01-09T00:00:01.585Z,33.38
2023-01-09T00:02:30.823Z,35.65
2023-01-09T00:04:59.077Z,32.67
2023-01-09T00:07:26.649Z,44.35
2023-01-09T00:09:54.583Z,40.97
2023-01-09T00:12:22.078Z,31.77
2023-01-09T00:14:50.047Z,31.92
2023-01-09T00:17:17.541Z,30.85
2023-01-09T00:19:47.315Z,29.33
2023-01-09T00:22:14.837Z,28.88
2023-01-09T00:24:42.867Z,28.98
2023-01-09T00:27:10.421Z,30.40
2023-01-09T00:29:38.427Z,24.40
2023-01-09T00:32:06.148Z,25.13
2023-01-09T00:34:34.793Z,25.95
2023-01-09T00:37:04.463Z,28.27
2023-01-09T00:39:32.411Z,26.67
2023-01-09T00:42:00.108Z,30.45
2023-01-09T00:44:32.386Z,24.27
2023-01-09T00:47:03.260Z,22.73
2023-01-09T00:49:36.697Z,28.60
2023-01-09T00:52:09.473Z,24.30
2023-01-09T00:54:38.212Z,30.13
2023-01-09T00:57:06.195Z,30.67
2023-01-09T00:59:34.199Z,25.42
2023-01-09T01:02:02.051Z,81.07
2023-01-09T01:04:30.282Z,33.83
2023-01-09T01:06:58.219Z,30.50
2023-01-09T01:09:27.881Z,30.13
2023-01-09T01:11:55.309Z,27.92
2023-01-09T01:14:23.322Z,24.02
2023-01-09T01:16:51.099Z,26.58
2023-01-09T01:19:19.278Z,32.42
2023-01-09T01:21:46.945Z,27.02
2023-01-09T01:24:14.873Z,28.27
2023-01-09T01:26:43.877Z,29.00
2023-01-09T01:29:11.982Z,26.75
2023-01-09T01:31:39.499Z,26.13
2023-01-09T01:34:07.488Z,21.00
2023-01-09T01:36:35.170Z,32.00
2023-01-09T01:39:03.262Z,24.25
2023-01-09T01:41:30.810Z,27.33
2023-01-09T01:44:02.334Z,27.58
2023-01-09T01:46:30.710Z,30.02
2023-01-09T01:49:04.232Z,27.05
2023-01-09T01:51:35.481Z,30.70
2023-01-09T01:54:11.278Z,28.73
2023-01-09T01:56:43.344Z,27.17
2023-01-09T01:59:19.523Z,28.48
2023-01-09T02:01:52.656Z,32.58
2023-01-09T02:04:20.883Z,28.05
2023-01-09T02:06:52.113Z,25.92
2023-01-09T02:09:20.752Z,30.70
2023-01-09T02:11:52.097Z,29.70
2023-01-09T02:14:24.394Z,22.17
2023-01-09T02:17:02.948Z,28.65
2023-01-09T02:20:07.496Z,28.85
2023-01-09T02:22:41.105Z,31.77
2023-01-09T02:25:29.129Z,32.58
2023-01-09T02:28:31.910Z,25.50
2023-01-09T02:31:07.524Z,23.65
2023-01-09T02:33:46.704Z,29.67
2023-01-09T02:36:28.938Z,30.58
2023-01-09T02:39:10.957Z,27.45
2023-01-09T02:41:46.125Z,26.63
2023-01-09T02:44:17.379Z,32.88
2023-01-09T02:46:47.053Z,31.52
2023-01-09T02:49:17.567Z,27.20
2023-01-09T02:51:52.239Z,26.30
2023-01-09T02:54:30.592Z,28.10
2023-01-09T02:57:28.114Z,25.40
2023-01-09T03:00:08.286Z,27.00
2023-01-09T03:02:47.322Z,28.48
2023-01-09T03:05:23.239Z,26.88
2023-01-09T03:07:59.707Z,31.10
2023-01-09T03:10:36.192Z,31.50
2023-01-09T03:13:05.615Z,26.30
2023-01-09T03:15:36.513Z,28.45
2023-01-09T03:18:09.632Z,32.17
2023-01-09T03:20:38.859Z,25.95
2023-01-09T03:23:07.966Z,35.38
2023-01-09T03:25:35.785Z,28.52
2023-01-09T03:28:06.121Z,41.45
2023-01-09T03:30:35.457Z,37.95
2023-01-09T03:33:03.960Z,28.27
2023-01-09T03:35:32.855Z,35.08
2023-01-09T03:38:01.072Z,36.70
2023-01-09T03:40:28.671Z,39.47
2023-01-09T03:42:56.799Z,34.95
2023-01-09T03:45:24.440Z,30.77
2023-01-09T03:47:53.130Z,31.83
2023-01-09T03:50:20.772Z,27.75
2023-01-09T03:52:53.009Z,32.05
2023-01-09T03:55:20.663Z,27.67
2023-01-09T03:57:49.246Z,26.73
2023-01-09T04:00:17.487Z,23.52
2023-01-09T04:02:45.656Z,24.80
2023-01-09T04:05:13.602Z,22.88
2023-01-09T04:07:41.697Z,27.55
2023-01-09T04:10:12.151Z,22.23
2023-01-09T04:12:40.196Z,21.38
2023-01-09T04:15:08.469Z,24.25
2023-01-09T04:17:36.477Z,20.70
2023-01-09T04:20:04.614Z,26.95
2023-01-09T04:22:32.678Z,19.48
2023-01-09T04:25:00.266Z,20.05
2023-01-09T04:27:29.862Z,25.08
2023-01-09T04:29:57.426Z,24.75
2023-01-09T04:32:25.498Z,23.42
2023-01-09T04:34:53.257Z,24.00
2023-01-09T04:37:23.695Z,23.92
2023-01-09T04:39:51.424Z,22.58
2023-01-09T04:42:19.514Z,22.85
2023-01-09T04:44:48.422Z,24.25
2023-01-09T04:47:16.446Z,25.00
2023-01-09T04:49:43.882Z,23.75
2023-01-09T04:52:11.942Z,24.20
2023-01-09T04:54:39.592Z,27.08
2023-01-09T04:57:07.561Z,28.33
2023-01-09T04:59:35.086Z,22.98
2023-01-09T05:02:04.777Z,27.95
2023-01-09T05:04:32.595Z,24.35
2023-01-09T05:07:00.679Z,21.48
2023-01-09T05:09:28.501Z,23.80
2023-01-09T05:11:56.395Z,28.55
2023-01-09T05:14:24.011Z,22.48
2023-01-09T05:16:52.096Z,22.42
2023-01-09T05:19:21.407Z,21.20
2023-01-09T05:21:49.287Z,22.60
2023-01-09T05:24:16.895Z,22.35
2023-01-09T05:26:45.016Z,26.50
2023-01-09T05:29:15.470Z,26.35
2023-01-09T05:31:43.594Z,18.85
2023-01-09T05:34:11.151Z,25.77
2023-01-09T05:36:40.770Z,20.80
2023-01-09T05:39:08.411Z,23.02
2023-01-09T05:41:36.674Z,26.02
2023-01-09T05:44:04.532Z,22.52
2023-01-09T05:46:32.779Z,18.58
2023-01-09T05:49:00.350Z,25.58
2023-01-09T05:51:28.412Z,19.88
2023-01-09T05:53:57.658Z,20.27
2023-01-09T05:56:25.742Z,18.42
2023-01-09T05:58:53.202Z,17.88
2023-01-09T06:01:23.591Z,23.88
2023-01-09T06:03:51.318Z,24.73
2023-01-09T06:06:19.569Z,21.60
2023-01-09T06:08:47.137Z,21.73
2023-01-09T06:11:16.684Z,21.05
2023-01-09T06:13:44.348Z,20.38
2023-01-09T06:16:12.525Z,25.77
2023-01-09T06:18:40.188Z,27.17
2023-01-09T06:21:08.264Z,22.40
2023-01-09T06:23:35.883Z,25.75
2023-01-09T06:26:04.189Z,30.10
2023-01-09T06:28:33.279Z,22.20
2023-01-09T06:31:01.483Z,29.23
2023-01-09T06:33:30.158Z,30.30
2023-01-09T06:35:58.254Z,27.23
2023-01-09T06:38:26.129Z,30.58
2023-01-09T06:40:54.148Z,30.98
2023-01-09T06:43:21.777Z,29.92
2023-01-09T06:45:51.319Z,29.38
2023-01-09T06:48:19.385Z,32.35
2023-01-09T06:50:48.403Z,38.80
2023-01-09T06:53:15.923Z,36.80
2023-01-09T06:55:44.168Z,31.00
2023-01-09T06:58:11.992Z,30.80
2023-01-09T07:00:39.931Z,25.85
2023-01-09T07:03:09.395Z,27.13
2023-01-09T07:05:42.673Z,27.30
2023-01-09T07:08:10.443Z,26.83
2023-01-09T07:10:38.471Z,21.85
2023-01-09T07:13:05.965Z,28.88
2023-01-09T07:15:36.773Z,27.88
2023-01-09T07:18:04.829Z,25.95
2023-01-09T07:20:34.217Z,26.65
2023-01-09T07:23:01.829Z,24.85
2023-01-09T07:25:29.740Z,27.20
2023-01-09T07:27:57.288Z,27.98
2023-01-09T07:30:25.171Z,27.48
2023-01-09T07:32:53.809Z,26.98
2023-01-09T07:35:21.720Z,27.30
2023-01-09T07:37:50.729Z,26.92
2023-01-09T07:40:18.796Z,29.35
2023-01-09T07:42:46.321Z,32.20
2023-01-09T07:45:14.214Z,27.98
2023-01-09T07:47:42.060Z,31.80
2023-01-09T07:50:10.914Z,27.92
2023-01-09T07:52:38.742Z,34.90
2023-01-09T07:55:09.948Z,34.38
2023-01-09T07:57:37.508Z,33.42
2023-01-09T08:00:06.688Z,40.83
2023-01-09T08:02:34.648Z,35.05
2023-01-09T08:05:02.695Z,37.88
2023-01-09T08:07:30.251Z,40.17
2023-01-09T08:09:58.574Z,44.33
2023-01-09T08:12:27.593Z,43.03
2023-01-09T08:14:55.535Z,44.10
2023-01-09T08:17:26.501Z,39.35
2023-01-09T08:19:54.786Z,39.65
2023-01-09T08:22:22.343Z,37.00
2023-01-09T08:24:50.315Z,41.55
2023-01-09T08:27:17.859Z,38.05
2023-01-09T08:29:47.318Z,40.92
2023-01-09T08:32:15.169Z,46.97
2023-01-09T08:34:43.042Z,38.83
2023-01-09T08:37:10.503Z,40.80
2023-01-09T08:40:53.973Z,43.78
2023-01-09T08:43:21.797Z,37.92
2023-01-09T08:45:51.375Z,34.42
2023-01-09T08:48:22.468Z,37.03
2023-01-09T08:50:50.429Z,44.53
2023-01-09T08:53:18.011Z,40.20
2023-01-09T08:55:46.003Z,36.58
2023-01-09T08:58:13.659Z,40.90
2023-01-09T09:00:41.961Z,44.65
2023-01-09T09:03:18.552Z,41.35
2023-01-09T09:05:46.945Z,39.65
2023-01-09T09:08:16.865Z,44.78
2023-01-09T09:10:45.059Z,44.85
2023-01-09T09:13:12.654Z,42.53
2023-01-09T09:15:40.657Z,40.85
2023-01-09T09:18:08.696Z,47.15
2023-01-09T09:20:39.241Z,39.00
2023-01-09T09:23:07.119Z,36.13
2023-01-09T09:25:36.927Z,41.70
2023-01-09T09:28:04.791Z,36.60
2023-01-09T09:30:32.910Z,46.03
2023-01-09T09:33:03.412Z,45.42
2023-01-09T09:35:31.566Z,38.70
2023-01-09T09:38:05.153Z,40.65
2023-01-09T09:44:29.888Z,40.33
2023-01-09T09:47:06.568Z,46.42
2023-01-09T09:49:46.090Z,37.75
2023-01-09T09:52:26.384Z,46.90
2023-01-09T09:54:59.419Z,41.83
2023-01-09T09:57:35.568Z,40.70
2023-01-09T10:00:05.044Z,50.55
2023-01-09T10:02:46.029Z,52.35
2023-01-09T10:05:30.466Z,40.67
2023-01-09T10:10:55.373Z,43.63
2023-01-09T10:13:32.508Z,47.22
2023-01-09T10:16:10.740Z,46.40
2023-01-09T10:18:53.821Z,48.65
2023-01-09T10:21:30.601Z,48.10
2023-01-09T10:24:23.817Z,50.75
2023-01-09T10:26:53.523Z,41.38
2023-01-09T10:29:55.632Z,44.03
2023-01-09T10:32:40.450Z,49.95
2023-01-09T10:35:46.885Z,44.75
2023-01-09T10:38:18.405Z,52.30
2023-01-09T10:40:52.616Z,43.08
2023-01-09T10:43:29.141Z,45.63
2023-01-09T10:46:01.654Z,35.42
2023-01-09T10:48:32.783Z,40.70
2023-01-09T10:51:01.380Z,46.33
2023-01-09T10:53:34.308Z,42.40
2023-01-09T10:56:11.681Z,43.30
2023-01-09T10:58:40.803Z,48.72
2023-01-09T11:01:10.005Z,35.88
2023-01-09T11:03:37.650Z,35.47
2023-01-09T11:06:20.359Z,35.08
2023-01-09T11:08:49.688Z,35.88
2023-01-09T11:11:33.071Z,39.40
2023-01-09T11:14:15.290Z,32.10
2023-01-09T11:16:55.757Z,33.05
2023-01-09T11:19:30.242Z,30.08
2023-01-09T11:22:09.062Z,30.25
2023-01-09T11:24:36.781Z,33.85
2023-01-09T11:27:24.019Z,29.75
2023-01-09T11:30:18.953Z,29.73
2023-01-09T11:32:48.621Z,26.20
2023-01-09T11:35:24.080Z,24.52
2023-01-09T11:38:04.218Z,25.60
2023-01-09T11:40:44.063Z,21.05
2023-01-09T11:44:01.723Z,19.75
2023-01-09T11:46:37.806Z,16.40
2023-01-09T11:49:23.287Z,15.48
2023-01-09T11:54:40.696Z,13.38
2023-01-09T11:57:11.752Z,10.70
2023-01-09T11:59:40.868Z,8.77
2023-01-09T12:02:53.580Z,8.07
2023-01-09T12:05:36.728Z,8.20
2023-01-09T12:08:28.434Z,8.68
2023-01-09T12:11:34.549Z,8.05
2023-01-09T12:14:21.042Z,7.03
2023-01-09T12:17:47.593Z,7.93
2023-01-09T12:20:37.844Z,9.55
2023-01-09T12:23:26.458Z,7.90
2023-01-09T12:26:16.074Z,9.80
2023-01-09T12:29:21.945Z,13.48
2023-01-09T12:32:18.435Z,10.60
2023-01-09T12:34:56.303Z,9.05
2023-01-09T12:37:47.584Z,8.95
2023-01-09T12:40:33.827Z,11.15
2023-01-09T12:47:01.145Z,6.00
2023-01-09T12:49:47.495Z,6.55
2023-01-09T12:56:20.784Z,8.98
2023-01-09T12:58:56.395Z,9.55
2023-01-09T13:01:29.868Z,8.60
2023-01-09T13:04:10.307Z,10.75
2023-01-09T13:06:43.728Z,9.18
2023-01-09T13:09:42.008Z,7.53
2023-01-09T13:12:36.896Z,8.45
2023-01-09T13:15:26.388Z,6.88
2023-01-09T13:18:06.235Z,9.43
2023-01-09T13:29:19.657Z,8.40
2023-01-09T13:32:20.770Z,10.40
2023-01-09T13:34:52.790Z,8.70
2023-01-09T13:37:28.335Z,7.40
2023-01-09T13:40:00.847Z,8.23
2023-01-09T13:42:30.728Z,8.77
2023-01-09T13:45:11.664Z,8.98
2023-01-09T13:47:44.110Z,7.82
2023-01-09T13:53:41.939Z,7.32
2023-01-09T13:56:10.601Z,8.60
2023-01-09T13:59:02.043Z,5.85
2023-01-09T14:01:50.302Z,6.75
2023-01-09T14:04:47.595Z,6.38
2023-01-09T14:07:24.385Z,7.18
2023-01-09T14:10:13.074Z,6.20
2023-01-09T14:16:30.761Z,6.20
2023-01-09T14:19:04.775Z,6.18
2023-01-09T14:21:49.953Z,5.43
2023-01-09T14:24:24.865Z,5.97
2023-01-09T14:26:56.433Z,4.95
2023-01-09T14:29:41.849Z,6.22
2023-01-09T14:32:37.417Z,5.32
2023-01-09T14:35:14.002Z,8.07
2023-01-09T14:38:05.847Z,5.93
2023-01-09T14:40:35.978Z,6.32
2023-01-09T14:43:14.717Z,6.85
2023-01-09T14:45:50.092Z,5.20
2023-01-09T14:48:18.778Z,5.18
2023-01-09T14:50:50.478Z,6.60
2023-01-09T14:53:24.032Z,5.30
2023-01-09T14:55:53.850Z,6.55
2023-01-09T14:58:23.585Z,7.68
2023-01-09T15:01:00.653Z,8.18
2023-01-09T15:03:32.157Z,6.18
2023-01-09T15:06:00.895Z,7.15
2023-01-09T15:08:30.343Z,6.32
2023-01-09T15:10:59.719Z,5.47
2023-01-09T15:13:35.163Z,6.15
2023-01-09T15:16:06.422Z,7.15
2023-01-09T15:18:41.339Z,7.05
2023-01-09T15:21:18.319Z,7.93
2023-01-09T15:23:47.405Z,14.43
2023-01-09T15:26:24.593Z,12.98
2023-01-09T15:28:53.034Z,9.07
2023-01-09T15:31:24.041Z,7.00
2023-01-09T15:33:54.026Z,8.73
2023-01-09T15:36:24.964Z,9.27
2023-01-09T15:38:54.643Z,8.95
2023-01-09T15:41:26.190Z,9.90
2023-01-09T15:43:53.772Z,7.88
2023-01-09T15:46:21.827Z,10.00
2023-01-09T15:48:54.095Z,10.77
2023-01-09T15:51:22.624Z,8.70
2023-01-09T15:53:50.293Z,7.63
2023-01-09T15:56:22.428Z,6.97
2023-01-09T15:58:51.359Z,8.60
2023-01-09T16:01:28.608Z,7.22
2023-01-09T16:04:03.673Z,6.68
2023-01-09T16:06:33.760Z,7.60
2023-01-09T16:09:02.177Z,8.38
2023-01-09T16:11:34.643Z,8.52
2023-01-09T16:14:14.259Z,8.60
2023-01-09T16:16:42.379Z,11.43
2023-01-09T16:19:29.497Z,10.10
2023-01-09T16:21:58.817Z,40.10
2023-01-09T16:24:28.608Z,74.07
2023-01-09T16:27:20.460Z,61.17
2023-01-09T16:29:49.378Z,44.97
2023-01-09T16:32:19.818Z,25.95
2023-01-09T16:34:52.172Z,17.70
2023-01-09T16:37:20.475Z,9.50
2023-01-09T16:40:28.154Z,10.52
2023-01-09T16:42:59.628Z,10.82
2023-01-09T16:45:28.509Z,10.05
2023-01-09T16:47:57.136Z,12.80
2023-01-09T16:50:25.250Z,10.07
2023-01-09T16:52:53.318Z,11.35
2023-01-09T16:55:20.865Z,9.52
2023-01-09T16:57:49.517Z,10.98
2023-01-09T17:00:21.539Z,12.38
2023-01-09T17:05:17.167Z,12.50
2023-01-09T17:07:45.175Z,10.18
2023-01-09T17:10:19.900Z,12.68
2023-01-09T17:12:47.832Z,12.82
2023-01-09T17:15:15.594Z,16.17
2023-01-09T17:17:45.290Z,15.63
2023-01-09T17:20:17.623Z,17.45
2023-01-09T17:22:45.705Z,14.07
2023-01-09T17:25:16.770Z,21.33
2023-01-09T17:27:45.126Z,21.95
2023-01-09T17:30:18.782Z,23.35
2023-01-09T17:32:49.462Z,33.40
2023-01-09T17:35:17.301Z,21.35
2023-01-09T17:37:45.642Z,21.27
2023-01-09T17:40:19.275Z,28.10
2023-01-09T17:42:47.372Z,20.63
2023-01-09T17:45:15.043Z,19.83
2023-01-09T17:47:43.083Z,20.95
2023-01-09T17:50:18.450Z,22.48
2023-01-09T17:52:46.640Z,22.92
2023-01-09T17:55:14.463Z,20.70
2023-01-09T17:57:43.498Z,22.27
2023-01-09T18:00:23.640Z,22.98
2023-01-09T18:02:51.726Z,20.02
2023-01-09T18:05:23.136Z,19.98
2023-01-09T18:07:52.285Z,21.08
2023-01-09T18:10:22.025Z,19.17
2023-01-09T18:12:50.793Z,20.38
2023-01-09T18:15:18.550Z,20.40
2023-01-09T18:17:46.651Z,24.88
2023-01-09T18:20:14.310Z,21.13
2023-01-09T18:22:44.254Z,13.85
2023-01-09T18:25:12.229Z,15.38
2023-01-09T18:27:40.205Z,16.45
2023-01-09T18:30:09.216Z,24.70
2023-01-09T18:32:37.640Z,16.85
2023-01-09T18:35:05.928Z,15.98
2023-01-09T18:37:36.007Z,12.55
2023-01-09T18:40:06.576Z,12.30
2023-01-09T18:42:34.602Z,16.40
2023-01-09T18:45:02.604Z,15.68
2023-01-09T18:47:30.910Z,18.42
2023-01-09T18:49:58.540Z,21.58
2023-01-09T18:52:26.894Z,17.20
2023-01-09T18:54:54.495Z,14.90
2023-01-09T18:57:23.924Z,14.02
2023-01-09T18:59:51.579Z,14.38
2023-01-09T19:02:21.686Z,16.63
2023-01-09T19:04:49.474Z,14.55
2023-01-09T19:07:17.971Z,11.50
2023-01-09T19:09:46.556Z,14.48
2023-01-09T19:12:14.693Z,12.55
2023-01-09T19:14:44.124Z,13.15
2023-01-09T19:17:12.111Z,14.35
2023-01-09T19:19:40.031Z,16.67
2023-01-09T19:22:08.011Z,23.02
2023-01-09T19:24:35.542Z,16.55
2023-01-09T19:27:03.776Z,16.92
2023-01-09T19:29:31.414Z,17.00
2023-01-09T19:32:01.221Z,17.58
2023-01-09T19:34:29.088Z,14.73
2023-01-09T19:36:57.157Z,13.57
2023-01-09T19:39:25.054Z,16.83
2023-01-09T19:41:53.189Z,14.95
2023-01-09T19:44:21.190Z,17.73
2023-01-09T19:46:49.233Z,17.10
2023-01-09T19:49:18.513Z,19.30
2023-01-09T19:51:49.842Z,15.32
2023-01-09T19:54:17.371Z,14.85
2023-01-09T19:56:45.302Z,14.73
2023-01-09T19:59:13.308Z,12.93
2023-01-09T20:01:41.869Z,11.65
2023-01-09T20:04:12.138Z,14.63
2023-01-09T20:06:43.374Z,19.45
2023-01-09T20:09:11.989Z,24.52
2023-01-09T20:11:40.670Z,19.00
2023-01-09T20:14:10.087Z,21.55
2023-01-09T20:16:38.123Z,22.85
2023-01-09T20:19:05.879Z,23.23
2023-01-09T20:21:34.819Z,26.00
2023-01-09T20:24:06.267Z,23.13
2023-01-09T20:26:37.872Z,18.90
2023-01-09T20:29:05.753Z,23.08
2023-01-09T20:31:33.859Z,24.35
2023-01-09T20:34:02.112Z,21.73
2023-01-09T20:36:31.241Z,23.90
2023-01-09T20:39:00.669Z,22.90
2023-01-09T20:41:30.267Z,25.35
2023-01-09T20:43:59.929Z,19.42
2023-01-09T20:46:30.244Z,20.83
2023-01-09T20:48:59.151Z,21.77
2023-01-09T20:51:27.308Z,24.75
2023-01-09T20:53:55.286Z,23.20
2023-01-09T20:56:24.200Z,24.70
2023-01-09T20:58:53.633Z,28.27
2023-01-09T21:01:22.739Z,25.58
2023-01-09T21:03:51.165Z,25.35
2023-01-09T21:06:20.880Z,26.13
2023-01-09T21:08:48.821Z,22.30
2023-01-09T21:11:17.350Z,24.58
2023-01-09T21:13:45.487Z,26.48
2023-01-09T21:16:16.926Z,24.25
2023-01-09T21:18:44.952Z,26.98
2023-01-09T21:21:14.783Z,26.58
2023-01-09T21:23:45.944Z,24.48
2023-01-09T21:26:15.932Z,23.23
2023-01-09T21:28:46.827Z,23.25
2023-01-09T21:31:19.560Z,19.25
2023-01-09T21:33:48.294Z,20.25
2023-01-09T21:36:18.693Z,16.67
2023-01-09T21:38:46.929Z,17.40
2023-01-09T21:41:18.540Z,18.58
2023-01-09T21:43:46.305Z,16.27
2023-01-09T21:46:17.820Z,19.48
2023-01-09T21:48:45.506Z,18.08
2023-01-09T21:51:13.652Z,18.20
2023-01-09T21:53:41.376Z,16.40
2023-01-09T21:56:09.323Z,18.45
2023-01-09T21:58:39.764Z,18.35
2023-01-09T22:01:08.001Z,18.08
2023-01-09T22:03:37.175Z,14.35
2023-01-09T22:06:06.462Z,16.38
2023-01-09T22:08:34.935Z,18.05
2023-01-09T22:11:03.401Z,16.35
2023-01-09T22:13:31.596Z,21.25
2023-01-09T22:16:03.291Z,15.07
2023-01-09T22:18:31.062Z,21.80
2023-01-09T22:21:01.191Z,17.23
2023-01-09T22:23:29.083Z,19.40
2023-01-09T22:25:57.663Z,21.33
2023-01-09T22:28:25.380Z,18.00
2023-01-09T22:30:53.442Z,17.65
2023-01-09T22:33:21.110Z,18.05
2023-01-09T22:35:49.141Z,17.45
2023-01-09T22:38:18.365Z,19.10
2023-01-09T22:40:46.424Z,17.08
2023-01-09T22:43:14.272Z,21.75
2023-01-09T22:45:42.639Z,24.30
2023-01-09T22:48:10.532Z,21.60
2023-01-09T22:50:38.845Z,23.55
2023-01-09T22:53:06.381Z,23.55
2023-01-09T22:55:35.849Z,21.70
2023-01-09T22:58:03.481Z,21.55
2023-01-09T23:00:31.677Z,17.40
2023-01-09T23:06:39.842Z,18.17
2023-01-09T23:09:07.713Z,20.10
2023-01-09T23:11:36.675Z,23.23
2023-01-09T23:14:04.333Z,24.10
2023-01-09T23:16:31.757Z,19.55
2023-01-09T23:18:59.772Z,19.70
2023-01-09T23:21:27.294Z,19.33
2023-01-09T23:23:55.333Z,19.98
2023-01-09T23:26:22.856Z,19.75
2023-01-09T23:28:53.901Z,23.60
2023-01-09T23:31:21.430Z,22.92
2023-01-09T23:33:49.254Z,20.02
2023-01-09T23:36:16.841Z,23.90
2023-01-09T23:38:45.005Z,22.65
2023-01-09T23:41:12.472Z,19.35
2023-01-09T23:43:42.203Z,21.55
2023-01-09T23:46:11.482Z,21.38
2023-01-09T23:48:39.349Z,22.17
2023-01-09T23:51:07.267Z,18.02
2023-01-09T23:53:35.631Z,20.40
2023-01-09T23:56:03.087Z,18.88
2023-01-09T23:58:31.031Z,24.42
